sensor_id;sensor_type;location;lat;lon;timestamp;temperature;humidity
5689;DHT22;2869;50.432;8.680;2023-05-18T00:01:03;7.40;99.90
5689;DHT22;2869;50.432;8.680;2023-05-18T00:03:29;7.40;99.90
5689;DHT22;2869;50.432;8.680;2023-05-18T00:05:57;7.30;99.90
5689;DHT22;2869;50.432;8.680;2023-05-18T00:08:31;7.30;99.90
5689;DHT22;2869;50.432;8.680;2023-05-18T00:10:58;7.30;99.90
5689;DHT22;2869;50.432;8.680;2023-05-18T00:13:24;7.30;99.90
5689;DHT22;2869;50.432;8.680;2023-05-18T00:15:52;7.30;99.90
5689;DHT22;2869;50.432;8.680;2023-05-18T00:18:19;7.30;99.90
5689;DHT22;2869;50.432;8.680;2023-05-18T00:20:48;7.20;99.90
5689;DHT22;2869;50.432;8.680;2023-05-18T00:23:15;7.20;99.90
5689;DHT22;2869;50.432;8.680;2023-05-18T00:25:42;7.20;99.90
5689;DHT22;2869;50.432;8.680;2023-05-18T00:28:08;7.10;99.90
5689;DHT22;2869;50.432;8.680;2023-05-18T00:30:37;7.00;99.90
5689;DHT22;2869;50.432;8.680;2023-05-18T00:33:04;7.00;99.90
5689;DHT22;2869;50.432;8.680;2023-05-18T00:35:31;6.90;99.90
5689;DHT22;2869;50.432;8.680;2023-05-18T00:37:58;6.90;99.90
5689;DHT22;2869;50.432;8.680;2023-05-18T00:40:25;6.80;99.90
5689;DHT22;2869;50.432;8.680;2023-05-18T00:42:53;6.80;99.90
5689;DHT22;2869;50.432;8.680;2023-05-18T00:45:19;6.80;99.90
5689;DHT22;2869;50.432;8.680;2023-05-18T00:47:46;6.80;99.90
5689;DHT22;2869;50.432;8.680;2023-05-18T00:50:14;6.80;99.90
5689;DHT22;2869;50.432;8.680;2023-05-18T00:52:41;6.80;99.90
5689;DHT22;2869;50.432;8.680;2023-05-18T00:55:10;6.80;99.90
5689;DHT22;2869;50.432;8.680;2023-05-18T00:57:38;6.80;99.90
5689;DHT22;2869;50.432;8.680;2023-05-18T01:00:08;6.80;99.90
5689;DHT22;2869;50.432;8.680;2023-05-18T01:02:35;6.70;99.90
5689;DHT22;2869;50.432;8.680;2023-05-18T01:05:07;6.70;99.90
5689;DHT22;2869;50.432;8.680;2023-05-18T01:07:37;6.70;99.90
5689;DHT22;2869;50.432;8.680;2023-05-18T01:10:07;6.60;99.90
5689;DHT22;2869;50.432;8.680;2023-05-18T01:12:39;6.60;99.90
5689;DHT22;2869;50.432;8.680;2023-05-18T01:15:09;6.60;99.90
5689;DHT22;2869;50.432;8.680;2023-05-18T01:17:42;6.50;99.90
5689;DHT22;2869;50.432;8.680;2023-05-18T01:20:18;6.50;99.90
5689;DHT22;2869;50.432;8.680;2023-05-18T01:23:02;6.40;99.90
5689;DHT22;2869;50.432;8.680;2023-05-18T01:25:45;6.40;99.90
5689;DHT22;2869;50.432;8.680;2023-05-18T01:28:16;6.30;99.90
5689;DHT22;2869;50.432;8.680;2023-05-18T01:30:44;6.30;99.90
5689;DHT22;2869;50.432;8.680;2023-05-18T01:33:12;6.30;99.90
5689;DHT22;2869;50.432;8.680;2023-05-18T01:35:39;6.20;99.90
5689;DHT22;2869;50.432;8.680;2023-05-18T01:38:12;6.20;99.90
5689;DHT22;2869;50.432;8.680;2023-05-18T01:40:44;6.10;99.90
5689;DHT22;2869;50.432;8.680;2023-05-18T01:43:17;6.10;99.90
5689;DHT22;2869;50.432;8.680;2023-05-18T01:45:47;6.10;99.90
5689;DHT22;2869;50.432;8.680;2023-05-18T01:48:18;6.10;99.90
5689;DHT22;2869;50.432;8.680;2023-05-18T01:50:47;6.00;99.90
5689;DHT22;2869;50.432;8.680;2023-05-18T01:53:23;6.00;99.90
5689;DHT22;2869;50.432;8.680;2023-05-18T01:55:51;6.00;99.90
5689;DHT22;2869;50.432;8.680;2023-05-18T01:58:21;6.00;99.90
5689;DHT22;2869;50.432;8.680;2023-05-18T02:00:48;6.00;99.90
5689;DHT22;2869;50.432;8.680;2023-05-18T02:03:15;6.00;99.90
5689;DHT22;2869;50.432;8.680;2023-05-18T02:05:42;5.90;99.90
5689;DHT22;2869;50.432;8.680;2023-05-18T02:08:09;5.90;99.90
5689;DHT22;2869;50.432;8.680;2023-05-18T02:10:36;5.80;99.90
5689;DHT22;2869;50.432;8.680;2023-05-18T02:13:02;5.80;99.90
5689;DHT22;2869;50.432;8.680;2023-05-18T02:15:30;5.80;99.90
5689;DHT22;2869;50.432;8.680;2023-05-18T02:17:57;5.80;99.90
5689;DHT22;2869;50.432;8.680;2023-05-18T02:20:23;5.80;99.90
5689;DHT22;2869;50.432;8.680;2023-05-18T02:22:50;5.80;99.90
5689;DHT22;2869;50.432;8.680;2023-05-18T02:25:17;5.80;99.90
5689;DHT22;2869;50.432;8.680;2023-05-18T02:27:43;5.80;99.90
5689;DHT22;2869;50.432;8.680;2023-05-18T02:30:11;5.80;99.90
5689;DHT22;2869;50.432;8.680;2023-05-18T02:32:39;5.70;99.90
5689;DHT22;2869;50.432;8.680;2023-05-18T02:35:08;5.70;99.90
5689;DHT22;2869;50.432;8.680;2023-05-18T02:37:35;5.70;99.90
5689;DHT22;2869;50.432;8.680;2023-05-18T02:40:05;5.70;99.90
5689;DHT22;2869;50.432;8.680;2023-05-18T02:42:32;5.60;99.90
5689;DHT22;2869;50.432;8.680;2023-05-18T02:44:59;5.60;99.90
5689;DHT22;2869;50.432;8.680;2023-05-18T02:47:26;5.50;99.90
5689;DHT22;2869;50.432;8.680;2023-05-18T02:49:54;5.50;99.90
5689;DHT22;2869;50.432;8.680;2023-05-18T02:52:21;5.50;99.90
5689;DHT22;2869;50.432;8.680;2023-05-18T02:54:48;5.50;99.90
5689;DHT22;2869;50.432;8.680;2023-05-18T02:57:14;5.50;99.90
5689;DHT22;2869;50.432;8.680;2023-05-18T02:59:41;5.50;99.90
5689;DHT22;2869;50.432;8.680;2023-05-18T03:02:07;5.50;99.90
5689;DHT22;2869;50.432;8.680;2023-05-18T03:04:34;5.50;99.90
5689;DHT22;2869;50.432;8.680;2023-05-18T03:07:03;5.50;99.90
5689;DHT22;2869;50.432;8.680;2023-05-18T03:09:32;5.50;99.90
5689;DHT22;2869;50.432;8.680;2023-05-18T03:11:59;5.40;99.90
5689;DHT22;2869;50.432;8.680;2023-05-18T03:14:25;5.40;99.90
5689;DHT22;2869;50.432;8.680;2023-05-18T03:16:52;5.40;99.90
5689;DHT22;2869;50.432;8.680;2023-05-18T03:19:22;5.30;99.90
5689;DHT22;2869;50.432;8.680;2023-05-18T03:21:48;5.30;99.90
5689;DHT22;2869;50.432;8.680;2023-05-18T03:24:16;5.30;99.90
5689;DHT22;2869;50.432;8.680;2023-05-18T03:26:44;5.20;99.90
5689;DHT22;2869;50.432;8.680;2023-05-18T03:29:11;5.20;99.90
5689;DHT22;2869;50.432;8.680;2023-05-18T03:31:37;5.10;99.90
5689;DHT22;2869;50.432;8.680;2023-05-18T03:34:05;5.10;99.90
5689;DHT22;2869;50.432;8.680;2023-05-18T03:36:31;5.10;99.90
5689;DHT22;2869;50.432;8.680;2023-05-18T03:38:59;5.00;99.90
5689;DHT22;2869;50.432;8.680;2023-05-18T03:41:27;5.00;99.90
5689;DHT22;2869;50.432;8.680;2023-05-18T03:43:56;5.00;99.90
5689;DHT22;2869;50.432;8.680;2023-05-18T03:46:23;5.00;99.90
5689;DHT22;2869;50.432;8.680;2023-05-18T03:48:50;5.00;99.90
5689;DHT22;2869;50.432;8.680;2023-05-18T03:51:18;5.00;99.90
5689;DHT22;2869;50.432;8.680;2023-05-18T03:53:45;5.00;99.90
5689;DHT22;2869;50.432;8.680;2023-05-18T03:56:12;5.00;99.90
5689;DHT22;2869;50.432;8.680;2023-05-18T03:58:40;5.00;99.90
5689;DHT22;2869;50.432;8.680;2023-05-18T04:01:06;5.00;99.90
5689;DHT22;2869;50.432;8.680;2023-05-18T04:03:33;4.90;99.90
5689;DHT22;2869;50.432;8.680;2023-05-18T04:06:00;4.90;99.90
5689;DHT22;2869;50.432;8.680;2023-05-18T04:08:27;4.90;99.90
5689;DHT22;2869;50.432;8.680;2023-05-18T04:10:54;4.90;99.90
5689;DHT22;2869;50.432;8.680;2023-05-18T04:13:21;4.90;99.90
5689;DHT22;2869;50.432;8.680;2023-05-18T04:15:49;4.90;99.90
5689;DHT22;2869;50.432;8.680;2023-05-18T04:18:16;4.90;99.90
5689;DHT22;2869;50.432;8.680;2023-05-18T04:20:42;5.00;99.90
5689;DHT22;2869;50.432;8.680;2023-05-18T04:23:10;4.90;99.90
5689;DHT22;2869;50.432;8.680;2023-05-18T04:25:37;4.90;99.90
5689;DHT22;2869;50.432;8.680;2023-05-18T04:28:05;5.00;99.90
5689;DHT22;2869;50.432;8.680;2023-05-18T04:30:32;5.00;99.90
5689;DHT22;2869;50.432;8.680;2023-05-18T04:33:01;5.00;99.90
5689;DHT22;2869;50.432;8.680;2023-05-18T04:35:28;5.00;99.90
5689;DHT22;2869;50.432;8.680;2023-05-18T04:37:56;5.10;99.90
5689;DHT22;2869;50.432;8.680;2023-05-18T04:40:22;5.10;99.90
5689;DHT22;2869;50.432;8.680;2023-05-18T04:42:49;5.20;99.90
5689;DHT22;2869;50.432;8.680;2023-05-18T04:45:17;5.20;99.90
5689;DHT22;2869;50.432;8.680;2023-05-18T04:47:44;5.30;99.90
5689;DHT22;2869;50.432;8.680;2023-05-18T04:50:13;5.30;99.90
5689;DHT22;2869;50.432;8.680;2023-05-18T04:52:41;5.40;99.90
5689;DHT22;2869;50.432;8.680;2023-05-18T04:55:13;5.50;99.90
5689;DHT22;2869;50.432;8.680;2023-05-18T04:57:40;5.60;99.90
5689;DHT22;2869;50.432;8.680;2023-05-18T05:00:11;5.60;99.90
5689;DHT22;2869;50.432;8.680;2023-05-18T05:02:37;5.70;99.90
5689;DHT22;2869;50.432;8.680;2023-05-18T05:05:05;5.80;99.90
5689;DHT22;2869;50.432;8.680;2023-05-18T05:07:34;5.90;99.90
5689;DHT22;2869;50.432;8.680;2023-05-18T05:10:00;6.00;99.90
5689;DHT22;2869;50.432;8.680;2023-05-18T05:12:27;6.10;99.90
5689;DHT22;2869;50.432;8.680;2023-05-18T05:14:54;6.10;99.90
5689;DHT22;2869;50.432;8.680;2023-05-18T05:17:21;6.20;99.90
5689;DHT22;2869;50.432;8.680;2023-05-18T05:19:48;6.40;99.90
5689;DHT22;2869;50.432;8.680;2023-05-18T05:22:15;6.50;99.90
5689;DHT22;2869;50.432;8.680;2023-05-18T05:24:43;6.60;99.90
5689;DHT22;2869;50.432;8.680;2023-05-18T05:27:10;6.80;99.90
5689;DHT22;2869;50.432;8.680;2023-05-18T05:29:37;6.90;99.90
5689;DHT22;2869;50.432;8.680;2023-05-18T05:32:04;7.10;99.90
5689;DHT22;2869;50.432;8.680;2023-05-18T05:34:31;7.20;99.90
5689;DHT22;2869;50.432;8.680;2023-05-18T05:36:57;7.40;99.90
5689;DHT22;2869;50.432;8.680;2023-05-18T05:39:24;7.50;99.90
5689;DHT22;2869;50.432;8.680;2023-05-18T05:41:52;7.60;99.90
5689;DHT22;2869;50.432;8.680;2023-05-18T05:44:18;7.70;99.90
5689;DHT22;2869;50.432;8.680;2023-05-18T05:46:45;7.80;99.90
5689;DHT22;2869;50.432;8.680;2023-05-18T05:49:12;8.00;99.90
5689;DHT22;2869;50.432;8.680;2023-05-18T05:51:38;8.10;99.90
5689;DHT22;2869;50.432;8.680;2023-05-18T05:54:05;8.20;99.90
5689;DHT22;2869;50.432;8.680;2023-05-18T05:56:31;8.40;99.90
5689;DHT22;2869;50.432;8.680;2023-05-18T05:58:59;8.50;99.90
5689;DHT22;2869;50.432;8.680;2023-05-18T06:01:26;8.60;99.90
5689;DHT22;2869;50.432;8.680;2023-05-18T06:03:53;8.70;99.90
5689;DHT22;2869;50.432;8.680;2023-05-18T06:06:20;8.90;99.90
5689;DHT22;2869;50.432;8.680;2023-05-18T06:08:46;9.10;99.90
5689;DHT22;2869;50.432;8.680;2023-05-18T06:11:13;9.20;99.90
5689;DHT22;2869;50.432;8.680;2023-05-18T06:13:40;9.40;99.90
5689;DHT22;2869;50.432;8.680;2023-05-18T06:16:07;9.50;99.90
5689;DHT22;2869;50.432;8.680;2023-05-18T06:18:34;9.70;99.90
5689;DHT22;2869;50.432;8.680;2023-05-18T06:21:01;9.80;99.90
5689;DHT22;2869;50.432;8.680;2023-05-18T06:23:27;10.00;99.90
5689;DHT22;2869;50.432;8.680;2023-05-18T06:25:54;10.20;99.90
5689;DHT22;2869;50.432;8.680;2023-05-18T06:28:20;10.30;99.90
5689;DHT22;2869;50.432;8.680;2023-05-18T06:30:47;10.40;99.90
5689;DHT22;2869;50.432;8.680;2023-05-18T06:33:15;10.50;99.90
5689;DHT22;2869;50.432;8.680;2023-05-18T06:35:42;10.60;99.90
5689;DHT22;2869;50.432;8.680;2023-05-18T06:38:09;10.70;99.90
5689;DHT22;2869;50.432;8.680;2023-05-18T06:40:35;10.80;99.90
5689;DHT22;2869;50.432;8.680;2023-05-18T06:43:02;11.00;99.90
5689;DHT22;2869;50.432;8.680;2023-05-18T06:45:29;11.00;99.90
5689;DHT22;2869;50.432;8.680;2023-05-18T06:47:56;11.10;99.90
5689;DHT22;2869;50.432;8.680;2023-05-18T06:50:24;11.20;99.90
5689;DHT22;2869;50.432;8.680;2023-05-18T06:52:50;11.40;99.90
5689;DHT22;2869;50.432;8.680;2023-05-18T06:55:17;11.40;99.90
5689;DHT22;2869;50.432;8.680;2023-05-18T06:57:44;11.50;99.90
5689;DHT22;2869;50.432;8.680;2023-05-18T07:00:11;11.60;99.90
5689;DHT22;2869;50.432;8.680;2023-05-18T07:02:38;11.80;99.90
5689;DHT22;2869;50.432;8.680;2023-05-18T07:05:05;12.00;99.90
5689;DHT22;2869;50.432;8.680;2023-05-18T07:07:35;12.10;99.90
5689;DHT22;2869;50.432;8.680;2023-05-18T07:10:02;12.20;99.90
5689;DHT22;2869;50.432;8.680;2023-05-18T07:12:29;12.50;99.90
5689;DHT22;2869;50.432;8.680;2023-05-18T07:14:55;12.70;99.90
5689;DHT22;2869;50.432;8.680;2023-05-18T07:17:22;12.90;99.90
5689;DHT22;2869;50.432;8.680;2023-05-18T07:19:49;12.90;99.90
5689;DHT22;2869;50.432;8.680;2023-05-18T07:22:15;13.00;99.90
5689;DHT22;2869;50.432;8.680;2023-05-18T07:24:43;13.10;99.90
5689;DHT22;2869;50.432;8.680;2023-05-18T07:27:10;13.20;99.90
5689;DHT22;2869;50.432;8.680;2023-05-18T07:29:37;13.20;99.90
5689;DHT22;2869;50.432;8.680;2023-05-18T07:32:04;13.20;99.90
5689;DHT22;2869;50.432;8.680;2023-05-18T07:34:30;13.50;99.90
5689;DHT22;2869;50.432;8.680;2023-05-18T07:36:57;13.70;99.90
5689;DHT22;2869;50.432;8.680;2023-05-18T07:39:24;13.80;99.90
5689;DHT22;2869;50.432;8.680;2023-05-18T07:41:54;13.90;99.90
5689;DHT22;2869;50.432;8.680;2023-05-18T07:44:21;14.00;99.90
5689;DHT22;2869;50.432;8.680;2023-05-18T07:46:48;14.10;99.90
5689;DHT22;2869;50.432;8.680;2023-05-18T07:49:15;14.30;99.90
5689;DHT22;2869;50.432;8.680;2023-05-18T07:51:41;14.50;99.90
5689;DHT22;2869;50.432;8.680;2023-05-18T07:54:08;14.80;99.90
5689;DHT22;2869;50.432;8.680;2023-05-18T07:56:35;14.90;99.90
5689;DHT22;2869;50.432;8.680;2023-05-18T07:59:03;15.00;99.90
5689;DHT22;2869;50.432;8.680;2023-05-18T08:01:29;15.20;99.90
5689;DHT22;2869;50.432;8.680;2023-05-18T08:03:56;15.40;99.90
5689;DHT22;2869;50.432;8.680;2023-05-18T08:06:23;15.50;99.90
5689;DHT22;2869;50.432;8.680;2023-05-18T08:08:49;15.50;99.90
5689;DHT22;2869;50.432;8.680;2023-05-18T08:11:16;15.70;99.90
5689;DHT22;2869;50.432;8.680;2023-05-18T08:13:43;15.90;99.90
5689;DHT22;2869;50.432;8.680;2023-05-18T08:16:11;15.90;99.90
5689;DHT22;2869;50.432;8.680;2023-05-18T08:18:37;16.00;99.90
5689;DHT22;2869;50.432;8.680;2023-05-18T08:21:04;16.10;99.90
5689;DHT22;2869;50.432;8.680;2023-05-18T08:23:32;16.10;99.90
5689;DHT22;2869;50.432;8.680;2023-05-18T08:25:59;16.20;99.90
5689;DHT22;2869;50.432;8.680;2023-05-18T08:28:27;16.30;99.90
5689;DHT22;2869;50.432;8.680;2023-05-18T08:30:54;16.20;99.90
5689;DHT22;2869;50.432;8.680;2023-05-18T08:33:22;16.50;99.90
5689;DHT22;2869;50.432;8.680;2023-05-18T08:35:49;16.80;99.90
5689;DHT22;2869;50.432;8.680;2023-05-18T08:38:15;17.10;99.90
5689;DHT22;2869;50.432;8.680;2023-05-18T08:40:54;17.30;99.90
5689;DHT22;2869;50.432;8.680;2023-05-18T08:43:24;17.40;99.90
5689;DHT22;2869;50.432;8.680;2023-05-18T08:46:03;17.30;99.90
5689;DHT22;2869;50.432;8.680;2023-05-18T08:48:32;17.50;99.90
5689;DHT22;2869;50.432;8.680;2023-05-18T08:51:01;17.60;99.90
5689;DHT22;2869;50.432;8.680;2023-05-18T08:53:28;17.70;99.90
5689;DHT22;2869;50.432;8.680;2023-05-18T08:55:59;17.80;99.90
5689;DHT22;2869;50.432;8.680;2023-05-18T08:58:29;17.80;99.90
5689;DHT22;2869;50.432;8.680;2023-05-18T09:00:57;17.70;99.90
5689;DHT22;2869;50.432;8.680;2023-05-18T09:03:24;17.60;99.90
5689;DHT22;2869;50.432;8.680;2023-05-18T09:05:55;17.80;99.90
5689;DHT22;2869;50.432;8.680;2023-05-18T09:08:22;18.10;99.90
5689;DHT22;2869;50.432;8.680;2023-05-18T09:10:50;18.40;99.90
5689;DHT22;2869;50.432;8.680;2023-05-18T09:13:18;18.50;99.90
5689;DHT22;2869;50.432;8.680;2023-05-18T09:15:45;18.60;99.90
5689;DHT22;2869;50.432;8.680;2023-05-18T09:18:12;18.60;99.90
5689;DHT22;2869;50.432;8.680;2023-05-18T09:20:39;18.60;99.90
5689;DHT22;2869;50.432;8.680;2023-05-18T09:23:07;18.50;99.90
5689;DHT22;2869;50.432;8.680;2023-05-18T09:25:42;18.40;99.90
5689;DHT22;2869;50.432;8.680;2023-05-18T09:28:10;18.50;99.90
5689;DHT22;2869;50.432;8.680;2023-05-18T09:30:41;18.70;99.90
5689;DHT22;2869;50.432;8.680;2023-05-18T09:33:15;18.90;99.90
5689;DHT22;2869;50.432;8.680;2023-05-18T09:35:43;19.00;99.90
5689;DHT22;2869;50.432;8.680;2023-05-18T09:38:12;19.30;99.90
5689;DHT22;2869;50.432;8.680;2023-05-18T09:40:44;19.50;99.90
5689;DHT22;2869;50.432;8.680;2023-05-18T09:43:11;19.90;99.90
5689;DHT22;2869;50.432;8.680;2023-05-18T09:45:41;19.90;99.90
5689;DHT22;2869;50.432;8.680;2023-05-18T09:48:09;20.00;99.90
5689;DHT22;2869;50.432;8.680;2023-05-18T09:50:36;20.20;99.90
5689;DHT22;2869;50.432;8.680;2023-05-18T09:53:05;20.10;99.90
5689;DHT22;2869;50.432;8.680;2023-05-18T09:55:36;20.10;99.90
5689;DHT22;2869;50.432;8.680;2023-05-18T09:58:03;20.40;99.90
5689;DHT22;2869;50.432;8.680;2023-05-18T10:00:36;20.60;99.90
5689;DHT22;2869;50.432;8.680;2023-05-18T10:03:04;20.60;99.90
5689;DHT22;2869;50.432;8.680;2023-05-18T10:05:41;20.70;99.90
5689;DHT22;2869;50.432;8.680;2023-05-18T10:08:08;21.10;99.90
5689;DHT22;2869;50.432;8.680;2023-05-18T10:10:38;20.80;99.90
5689;DHT22;2869;50.432;8.680;2023-05-18T10:13:07;20.20;99.90
5689;DHT22;2869;50.432;8.680;2023-05-18T10:15:34;20.00;99.90
5689;DHT22;2869;50.432;8.680;2023-05-18T10:18:02;20.30;99.90
5689;DHT22;2869;50.432;8.680;2023-05-18T10:20:32;20.40;99.90
5689;DHT22;2869;50.432;8.680;2023-05-18T10:23:04;20.80;99.90
5689;DHT22;2869;50.432;8.680;2023-05-18T10:25:32;21.10;99.90
5689;DHT22;2869;50.432;8.680;2023-05-18T10:28:05;21.30;99.90
5689;DHT22;2869;50.432;8.680;2023-05-18T10:30:33;21.50;99.90
5689;DHT22;2869;50.432;8.680;2023-05-18T10:33:01;21.60;99.90
5689;DHT22;2869;50.432;8.680;2023-05-18T10:35:29;21.50;99.90
5689;DHT22;2869;50.432;8.680;2023-05-18T10:37:58;21.40;99.90
5689;DHT22;2869;50.432;8.680;2023-05-18T10:40:26;21.50;99.90
5689;DHT22;2869;50.432;8.680;2023-05-18T10:42:56;21.70;99.90
5689;DHT22;2869;50.432;8.680;2023-05-18T10:45:25;21.30;99.90
5689;DHT22;2869;50.432;8.680;2023-05-18T10:47:52;21.20;99.90
5689;DHT22;2869;50.432;8.680;2023-05-18T10:50:22;21.20;99.90
5689;DHT22;2869;50.432;8.680;2023-05-18T10:52:49;21.30;99.90
5689;DHT22;2869;50.432;8.680;2023-05-18T10:55:17;21.20;99.90
5689;DHT22;2869;50.432;8.680;2023-05-18T10:57:48;21.20;99.90
5689;DHT22;2869;50.432;8.680;2023-05-18T11:00:17;21.30;99.90
5689;DHT22;2869;50.432;8.680;2023-05-18T11:02:46;21.20;99.90
5689;DHT22;2869;50.432;8.680;2023-05-18T11:05:24;20.60;99.90
5689;DHT22;2869;50.432;8.680;2023-05-18T11:07:58;20.30;99.90
5689;DHT22;2869;50.432;8.680;2023-05-18T11:10:32;20.20;99.90
5689;DHT22;2869;50.432;8.680;2023-05-18T11:12:59;20.40;99.90
5689;DHT22;2869;50.432;8.680;2023-05-18T11:18:33;20.70;99.90
5689;DHT22;2869;50.432;8.680;2023-05-18T11:21:00;20.60;99.90
5689;DHT22;2869;50.432;8.680;2023-05-18T11:23:30;20.80;99.90
5689;DHT22;2869;50.432;8.680;2023-05-18T11:25:59;20.90;99.90
5689;DHT22;2869;50.432;8.680;2023-05-18T11:28:27;20.80;99.90
5689;DHT22;2869;50.432;8.680;2023-05-18T11:30:54;20.90;99.90
5689;DHT22;2869;50.432;8.680;2023-05-18T11:33:25;21.00;99.90
5689;DHT22;2869;50.432;8.680;2023-05-18T11:35:59;21.20;99.90
5689;DHT22;2869;50.432;8.680;2023-05-18T11:38:45;21.20;99.90
5689;DHT22;2869;50.432;8.680;2023-05-18T11:41:26;21.10;99.90
5689;DHT22;2869;50.432;8.680;2023-05-18T11:46:49;21.10;99.90
5689;DHT22;2869;50.432;8.680;2023-05-18T11:49:18;21.40;99.90
5689;DHT22;2869;50.432;8.680;2023-05-18T11:52:03;21.60;99.90
5689;DHT22;2869;50.432;8.680;2023-05-18T11:54:36;21.00;99.40
5689;DHT22;2869;50.432;8.680;2023-05-18T11:57:03;21.00;99.90
5689;DHT22;2869;50.432;8.680;2023-05-18T11:59:31;21.10;99.00
5689;DHT22;2869;50.432;8.680;2023-05-18T12:02:00;21.00;99.90
5689;DHT22;2869;50.432;8.680;2023-05-18T12:04:27;21.10;99.90
5689;DHT22;2869;50.432;8.680;2023-05-18T12:06:56;21.00;98.80
5689;DHT22;2869;50.432;8.680;2023-05-18T12:09:24;21.30;99.90
5689;DHT22;2869;50.432;8.680;2023-05-18T12:11:51;21.50;99.90
5689;DHT22;2869;50.432;8.680;2023-05-18T12:14:18;21.60;98.80
5689;DHT22;2869;50.432;8.680;2023-05-18T12:16:46;21.50;97.90
5689;DHT22;2869;50.432;8.680;2023-05-18T12:19:13;21.60;99.10
5689;DHT22;2869;50.432;8.680;2023-05-18T12:21:39;21.70;97.90
5689;DHT22;2869;50.432;8.680;2023-05-18T12:24:07;21.60;98.20
5689;DHT22;2869;50.432;8.680;2023-05-18T12:26:35;21.50;99.90
5689;DHT22;2869;50.432;8.680;2023-05-18T12:29:02;21.80;99.90
5689;DHT22;2869;50.432;8.680;2023-05-18T12:31:30;22.00;99.00
5689;DHT22;2869;50.432;8.680;2023-05-18T12:33:57;22.20;99.10
5689;DHT22;2869;50.432;8.680;2023-05-18T12:36:23;22.40;98.60
5689;DHT22;2869;50.432;8.680;2023-05-18T12:38:51;22.60;99.00
5689;DHT22;2869;50.432;8.680;2023-05-18T12:41:22;22.70;99.90
5689;DHT22;2869;50.432;8.680;2023-05-18T12:43:50;22.70;99.10
5689;DHT22;2869;50.432;8.680;2023-05-18T12:46:20;22.10;96.80
5689;DHT22;2869;50.432;8.680;2023-05-18T12:48:55;22.20;98.00
5689;DHT22;2869;50.432;8.680;2023-05-18T12:51:23;22.30;98.50
5689;DHT22;2869;50.432;8.680;2023-05-18T12:53:55;22.50;96.10
5689;DHT22;2869;50.432;8.680;2023-05-18T12:56:22;22.50;96.80
5689;DHT22;2869;50.432;8.680;2023-05-18T12:58:58;22.50;99.00
5689;DHT22;2869;50.432;8.680;2023-05-18T13:01:27;22.30;98.40
5689;DHT22;2869;50.432;8.680;2023-05-18T13:03:54;22.50;97.60
5689;DHT22;2869;50.432;8.680;2023-05-18T13:06:21;22.50;97.70
5689;DHT22;2869;50.432;8.680;2023-05-18T13:08:48;22.50;95.40
5689;DHT22;2869;50.432;8.680;2023-05-18T13:11:18;22.50;95.80
5689;DHT22;2869;50.432;8.680;2023-05-18T13:14:01;22.40;96.40
5689;DHT22;2869;50.432;8.680;2023-05-18T13:16:29;22.20;96.30
5689;DHT22;2869;50.432;8.680;2023-05-18T13:18:57;22.20;95.70
5689;DHT22;2869;50.432;8.680;2023-05-18T13:21:25;22.40;95.70
5689;DHT22;2869;50.432;8.680;2023-05-18T13:23:52;22.40;97.00
5689;DHT22;2869;50.432;8.680;2023-05-18T13:26:20;22.00;97.70
5689;DHT22;2869;50.432;8.680;2023-05-18T13:28:50;22.10;96.70
5689;DHT22;2869;50.432;8.680;2023-05-18T13:31:18;22.10;98.10
5689;DHT22;2869;50.432;8.680;2023-05-18T13:33:45;22.30;97.00
5689;DHT22;2869;50.432;8.680;2023-05-18T13:36:12;22.50;97.40
5689;DHT22;2869;50.432;8.680;2023-05-18T13:38:39;22.70;95.70
5689;DHT22;2869;50.432;8.680;2023-05-18T13:41:09;22.70;97.10
5689;DHT22;2869;50.432;8.680;2023-05-18T13:43:36;22.20;94.50
5689;DHT22;2869;50.432;8.680;2023-05-18T13:46:03;22.00;94.00
5689;DHT22;2869;50.432;8.680;2023-05-18T13:48:31;22.00;93.10
5689;DHT22;2869;50.432;8.680;2023-05-18T13:50:58;22.10;94.10
5689;DHT22;2869;50.432;8.680;2023-05-18T13:53:25;22.40;95.10
5689;DHT22;2869;50.432;8.680;2023-05-18T13:55:51;22.40;94.10
5689;DHT22;2869;50.432;8.680;2023-05-18T13:58:18;22.30;92.80
5689;DHT22;2869;50.432;8.680;2023-05-18T14:00:45;22.30;93.20
5689;DHT22;2869;50.432;8.680;2023-05-18T14:03:11;22.00;93.90
5689;DHT22;2869;50.432;8.680;2023-05-18T14:05:40;21.80;94.60
5689;DHT22;2869;50.432;8.680;2023-05-18T14:08:07;21.30;94.20
5689;DHT22;2869;50.432;8.680;2023-05-18T14:10:33;21.00;94.60
5689;DHT22;2869;50.432;8.680;2023-05-18T14:13:00;20.70;94.90
5689;DHT22;2869;50.432;8.680;2023-05-18T14:15:27;20.70;95.80
5689;DHT22;2869;50.432;8.680;2023-05-18T14:17:53;20.90;96.30
5689;DHT22;2869;50.432;8.680;2023-05-18T14:20:20;21.20;95.10
5689;DHT22;2869;50.432;8.680;2023-05-18T14:22:48;21.20;96.20
5689;DHT22;2869;50.432;8.680;2023-05-18T14:25:15;21.50;97.50
5689;DHT22;2869;50.432;8.680;2023-05-18T14:27:41;21.80;96.60
5689;DHT22;2869;50.432;8.680;2023-05-18T14:30:08;22.00;96.00
5689;DHT22;2869;50.432;8.680;2023-05-18T14:32:35;22.10;95.20
5689;DHT22;2869;50.432;8.680;2023-05-18T14:35:02;22.00;94.90
5689;DHT22;2869;50.432;8.680;2023-05-18T14:37:28;21.60;94.70
5689;DHT22;2869;50.432;8.680;2023-05-18T14:39:56;21.40;94.80
5689;DHT22;2869;50.432;8.680;2023-05-18T14:42:23;21.20;96.40
5689;DHT22;2869;50.432;8.680;2023-05-18T14:44:49;20.60;94.80
5689;DHT22;2869;50.432;8.680;2023-05-18T14:47:16;20.50;98.00
5689;DHT22;2869;50.432;8.680;2023-05-18T14:49:43;20.60;96.90
5689;DHT22;2869;50.432;8.680;2023-05-18T14:52:09;21.00;97.00
5689;DHT22;2869;50.432;8.680;2023-05-18T14:54:36;21.20;97.70
5689;DHT22;2869;50.432;8.680;2023-05-18T14:57:04;21.20;95.30
5689;DHT22;2869;50.432;8.680;2023-05-18T14:59:31;21.00;95.60
5689;DHT22;2869;50.432;8.680;2023-05-18T15:01:57;20.60;97.00
5689;DHT22;2869;50.432;8.680;2023-05-18T15:04:24;20.20;96.10
5689;DHT22;2869;50.432;8.680;2023-05-18T15:06:51;20.10;96.60
5689;DHT22;2869;50.432;8.680;2023-05-18T15:09:17;20.00;97.80
5689;DHT22;2869;50.432;8.680;2023-05-18T15:11:44;20.20;98.60
5689;DHT22;2869;50.432;8.680;2023-05-18T15:14:12;20.50;97.60
5689;DHT22;2869;50.432;8.680;2023-05-18T15:16:38;20.70;99.20
5689;DHT22;2869;50.432;8.680;2023-05-18T15:19:05;20.80;98.20
5689;DHT22;2869;50.432;8.680;2023-05-18T15:21:32;20.70;98.30
5689;DHT22;2869;50.432;8.680;2023-05-18T15:23:58;20.80;98.50
5689;DHT22;2869;50.432;8.680;2023-05-18T15:26:25;20.70;98.40
5689;DHT22;2869;50.432;8.680;2023-05-18T15:28:52;20.70;98.80
5689;DHT22;2869;50.432;8.680;2023-05-18T15:31:20;20.80;99.90
5689;DHT22;2869;50.432;8.680;2023-05-18T15:33:46;20.90;99.20
5689;DHT22;2869;50.432;8.680;2023-05-18T15:36:13;21.00;99.90
5689;DHT22;2869;50.432;8.680;2023-05-18T15:38:40;20.80;98.50
5689;DHT22;2869;50.432;8.680;2023-05-18T15:41:07;20.80;98.60
5689;DHT22;2869;50.432;8.680;2023-05-18T15:43:33;20.70;98.90
5689;DHT22;2869;50.432;8.680;2023-05-18T15:46:01;20.70;97.70
5689;DHT22;2869;50.432;8.680;2023-05-18T15:48:30;20.50;99.90
5689;DHT22;2869;50.432;8.680;2023-05-18T15:50:56;20.50;99.10
5689;DHT22;2869;50.432;8.680;2023-05-18T15:53:23;20.30;97.80
5689;DHT22;2869;50.432;8.680;2023-05-18T15:55:49;20.30;98.20
5689;DHT22;2869;50.432;8.680;2023-05-18T15:58:18;19.90;99.40
5689;DHT22;2869;50.432;8.680;2023-05-18T16:00:46;19.80;99.20
5689;DHT22;2869;50.432;8.680;2023-05-18T16:03:12;19.60;99.40
5689;DHT22;2869;50.432;8.680;2023-05-18T16:05:40;19.40;99.80
5689;DHT22;2869;50.432;8.680;2023-05-18T16:08:08;19.40;99.90
5689;DHT22;2869;50.432;8.680;2023-05-18T16:10:35;19.50;99.90
5689;DHT22;2869;50.432;8.680;2023-05-18T16:13:01;19.50;99.90
5689;DHT22;2869;50.432;8.680;2023-05-18T16:15:32;19.40;99.90
5689;DHT22;2869;50.432;8.680;2023-05-18T16:17:59;19.30;99.90